Airfield :







YOU CAN JOIN US ON...

 
LOGIN :

Register | Disclaimer

   EN    FR    IT 

 









Legend :    VFR   Marginal VFR   IFR   Intensive IFR   Very Intensive IFR
Visi :
Ceiling :
>= 8 km
>= 3000ft
5 to 8 km
1000 to 3000 ft
1500m to 5 km
500 to 1000 ft
800 to 1500m
200 to 500 ft
< 800m
< 200 ft
Symbols :   Thunderstorms  Fog  Heavy snow  Heavy precipitations  Wind > 20 kt






- Airport Elevation : 496 ft
- IATA code : YQX


CYQX - Gander

CURRENT METAR :
  • 200825Z 25008KT 5SM -SHRA BR OVC006 06/05 A2953 RMK SF8 VIS SE 12 SLP006

EXPIRED METARs :
  • 200800Z 26010KT 2SM -SHRA BR BKN005 OVC014 06/05 A2953 RMK FG3SF4SC1 CVCTV CLD EMBD SLP006
  • 200753Z 26008KT 2 1/2SM -SHRA BR BKN006 OVC014 06/05 A2953 RMK FG2SF5SC1 CVCTV CLD EMBD SLP006
  • 200744Z 26007KT 15SM -SHRA VCFG BKN005 OVC014 06/05 A2953 RMK SF6SC2 VIS NW 2 BR CVCTV CLD EMBD SLP005
  • 200700Z 25007KT 15SM -DZ BKN008 OVC014 06/05 A2953 RMK SF6SC2 SLP004
  • 200625Z 26008KT 15SM -DZ FEW008 OVC017 06/05 A2953 RMK SF2SC6 SLP004
  • 200614Z 26008KT 15SM -SHRA FEW008 OVC020 06/05 A2953 RMK SF2SC6 CVCTV CLD EMBD SLP004
  • 200600Z 25008KT 15SM FEW008 OVC016 06/05 A2952 RMK SF2SC6 MOON DMLY VISBL SLP003

TAF TAF CYQX
Valid from the 20 at 06:00 until the 21 at 06:00 UTC


200539Z 2006/2106 26010KT P6SM SCT009 OVC020
TEMPO 2006/2014 4SM -RA -DZ BR SCT003 OVC009
PROB30 2006/2014 BKN003
FM201400 29012G22KT P6SM -SHRA OVC012
FM202100 28012G22KT P6SM BKN020
FM210000 28012KT P6SM SCT006 OVC012
FM210300 28015KT 6SM -DZ BR OVC006
PROB30 2103/2106 OVC003 RMK NXT FCST BY 201200Z



MET'MAP, your aeronautical weather chart ! - Copyright ORBIFLY December 2007 - Disclaimer

ORBIFLY MET'MAP TEAM :

Programming & Development : Alexandra Zaïnal
Concept & Development : Baudouin d'Aumeries
Co-Development & Prog : Marc-Olivier Méhu
Technical & hardware support : Manuel Goepfert

Contact : metmap@orbifly.com




SOURCES & CREDITS :

   NOAA